sensor_id;sensor_type;location;lat;lon;timestamp;pressure;altitude;pressure_sealevel;temperature;humidity
14882;BME280;7533;51.278;12.588;2023-03-16T00:04:22;100689.09;;;21.74;59.65
14882;BME280;7533;51.278;12.588;2023-03-16T00:09:24;100691.13;;;21.71;59.85
14882;BME280;7533;51.278;12.588;2023-03-16T00:14:33;100691.41;;;21.66;59.90
14882;BME280;7533;51.278;12.588;2023-03-16T00:19:36;100684.50;;;21.62;59.93
14882;BME280;7533;51.278;12.588;2023-03-16T00:24:39;100684.78;;;21.57;60.08
14882;BME280;7533;51.278;12.588;2023-03-16T00:29:46;100682.28;;;21.54;60.12
14882;BME280;7533;51.278;12.588;2023-03-16T00:34:49;100687.88;;;21.51;60.31
14882;BME280;7533;51.278;12.588;2023-03-16T00:39:53;100687.28;;;21.46;60.52
14882;BME280;7533;51.278;12.588;2023-03-16T00:44:59;100691.03;;;21.44;60.63
14882;BME280;7533;51.278;12.588;2023-03-16T00:50:02;100691.25;;;21.41;60.54
14882;BME280;7533;51.278;12.588;2023-03-16T00:55:06;100704.97;;;21.36;60.77
14882;BME280;7533;51.278;12.588;2023-03-16T01:00:12;100701.59;;;21.32;60.91
14882;BME280;7533;51.278;12.588;2023-03-16T01:05:17;100714.38;;;21.29;60.88
14882;BME280;7533;51.278;12.588;2023-03-16T01:10:20;100708.31;;;21.25;60.92
14882;BME280;7533;51.278;12.588;2023-03-16T01:15:24;100719.19;;;21.24;61.14
14882;BME280;7533;51.278;12.588;2023-03-16T01:20:28;100706.84;;;21.20;61.20
14882;BME280;7533;51.278;12.588;2023-03-16T01:25:31;100706.25;;;21.14;61.26
14882;BME280;7533;51.278;12.588;2023-03-16T01:30:35;100696.66;;;21.10;61.47
14882;BME280;7533;51.278;12.588;2023-03-16T01:35:38;100700.50;;;21.06;61.66
14882;BME280;7533;51.278;12.588;2023-03-16T01:40:42;100710.47;;;21.04;61.82
14882;BME280;7533;51.278;12.588;2023-03-16T01:46:14;100708.00;;;21.01;61.94
14882;BME280;7533;51.278;12.588;2023-03-16T01:51:24;100704.59;;;20.98;62.07
14882;BME280;7533;51.278;12.588;2023-03-16T01:56:32;100694.03;;;20.95;62.26
14882;BME280;7533;51.278;12.588;2023-03-16T02:01:38;100695.19;;;20.91;62.21
14882;BME280;7533;51.278;12.588;2023-03-16T02:06:41;100692.59;;;20.89;62.24
14882;BME280;7533;51.278;12.588;2023-03-16T02:11:46;100682.09;;;20.84;62.70
14882;BME280;7533;51.278;12.588;2023-03-16T02:16:51;100693.03;;;20.81;62.67
14882;BME280;7533;51.278;12.588;2023-03-16T02:22:00;100687.84;;;20.78;62.81
14882;BME280;7533;51.278;12.588;2023-03-16T02:27:07;100688.88;;;20.76;62.89
14882;BME280;7533;51.278;12.588;2023-03-16T02:32:14;100689.94;;;20.73;62.98
14882;BME280;7533;51.278;12.588;2023-03-16T02:37:19;100684.75;;;20.70;63.09
14882;BME280;7533;51.278;12.588;2023-03-16T02:42:24;100695.69;;;20.67;63.22
14882;BME280;7533;51.278;12.588;2023-03-16T02:47:36;100694.94;;;20.65;63.27
14882;BME280;7533;51.278;12.588;2023-03-16T02:52:42;100694.22;;;20.62;63.31
14882;BME280;7533;51.278;12.588;2023-03-16T02:57:45;100697.03;;;20.60;63.49
14882;BME280;7533;51.278;12.588;2023-03-16T03:02:51;100699.88;;;20.57;63.64
14882;BME280;7533;51.278;12.588;2023-03-16T03:07:54;100712.56;;;20.55;63.67
14882;BME280;7533;51.278;12.588;2023-03-16T03:12:57;100715.31;;;20.53;63.92
14882;BME280;7533;51.278;12.588;2023-03-16T03:18:03;100711.00;;;20.51;63.91
14882;BME280;7533;51.278;12.588;2023-03-16T03:23:06;100716.53;;;20.48;63.79
14882;BME280;7533;51.278;12.588;2023-03-16T03:28:09;100716.72;;;20.45;63.95
14882;BME280;7533;51.278;12.588;2023-03-16T03:33:14;100717.72;;;20.42;64.01
14882;BME280;7533;51.278;12.588;2023-03-16T03:38:17;100727.63;;;20.42;64.18
14882;BME280;7533;51.278;12.588;2023-03-16T03:43:20;100719.66;;;20.40;64.12
14882;BME280;7533;51.278;12.588;2023-03-16T03:48:27;100725.22;;;20.37;64.42
14882;BME280;7533;51.278;12.588;2023-03-16T03:53:31;100723.47;;;20.36;64.37
14882;BME280;7533;51.278;12.588;2023-03-16T03:58:57;100719.25;;;20.32;64.59
14882;BME280;7533;51.278;12.588;2023-03-16T04:04:27;100709.34;;;20.32;64.33
14882;BME280;7533;51.278;12.588;2023-03-16T04:09:30;100713.06;;;20.30;64.65
14882;BME280;7533;51.278;12.588;2023-03-16T04:14:35;100709.63;;;20.28;64.83
14882;BME280;7533;51.278;12.588;2023-03-16T04:19:43;100707.03;;;20.26;64.91
14882;BME280;7533;51.278;12.588;2023-03-16T04:24:49;100707.88;;;20.27;65.15
14882;BME280;7533;51.278;12.588;2023-03-16T04:29:53;100703.63;;;20.23;65.27
14882;BME280;7533;51.278;12.588;2023-03-16T04:35:00;100709.00;;;20.23;65.16
14882;BME280;7533;51.278;12.588;2023-03-16T04:40:21;100708.31;;;20.19;64.90
14882;BME280;7533;51.278;12.588;2023-03-16T04:45:33;100709.28;;;20.18;64.91
14882;BME280;7533;51.278;12.588;2023-03-16T04:50:38;100704.00;;;20.17;64.91
14882;BME280;7533;51.278;12.588;2023-03-16T04:55:43;100697.84;;;20.15;64.90
14882;BME280;7533;51.278;12.588;2023-03-16T05:00:46;100706.94;;;20.12;64.71
14882;BME280;7533;51.278;12.588;2023-03-16T05:05:59;100698.97;;;20.11;64.80
14882;BME280;7533;51.278;12.588;2023-03-16T05:11:05;100714.28;;;20.08;64.78
14882;BME280;7533;51.278;12.588;2023-03-16T05:16:15;100713.53;;;20.06;64.82
14882;BME280;7533;51.278;12.588;2023-03-16T05:21:21;100717.25;;;20.04;64.74
14882;BME280;7533;51.278;12.588;2023-03-16T05:26:31;100717.31;;;20.02;64.79
14882;BME280;7533;51.278;12.588;2023-03-16T05:31:35;100720.09;;;20.01;64.69
14882;BME280;7533;51.278;12.588;2023-03-16T05:36:46;100722.03;;;19.99;64.78
14882;BME280;7533;51.278;12.588;2023-03-16T05:41:51;100719.41;;;19.97;64.73
14882;BME280;7533;51.278;12.588;2023-03-16T05:47:13;100723.03;;;19.96;64.68
14882;BME280;7533;51.278;12.588;2023-03-16T05:52:21;100732.94;;;19.96;64.82
14882;BME280;7533;51.278;12.588;2023-03-16T05:57:27;100749.06;;;19.96;64.78
14882;BME280;7533;51.278;12.588;2023-03-16T06:02:32;100741.94;;;19.95;64.58
14882;BME280;7533;51.278;12.588;2023-03-16T06:07:36;100744.63;;;19.95;64.72
14882;BME280;7533;51.278;12.588;2023-03-16T06:12:39;100741.94;;;19.95;64.58
14882;BME280;7533;51.278;12.588;2023-03-16T06:17:42;100750.97;;;19.94;64.74
14882;BME280;7533;51.278;12.588;2023-03-16T06:22:47;100748.28;;;19.94;64.66
14882;BME280;7533;51.278;12.588;2023-03-16T06:27:50;100748.28;;;19.94;64.51
14882;BME280;7533;51.278;12.588;2023-03-16T06:32:53;100757.31;;;19.93;64.58
14882;BME280;7533;51.278;12.588;2023-03-16T06:37:58;100760.84;;;19.93;64.59
14882;BME280;7533;51.278;12.588;2023-03-16T06:43:18;100758.16;;;19.93;64.45
14882;BME280;7533;51.278;12.588;2023-03-16T06:48:21;100750.09;;;19.93;64.47
14882;BME280;7533;51.278;12.588;2023-03-16T06:53:25;100759.88;;;19.94;64.57
14882;BME280;7533;51.278;12.588;2023-03-16T06:58:30;100767.00;;;19.95;64.56
14882;BME280;7533;51.278;12.588;2023-03-16T07:03:35;100764.41;;;19.94;64.43
14882;BME280;7533;51.278;12.588;2023-03-16T07:08:54;100763.44;;;19.95;64.46
14882;BME280;7533;51.278;12.588;2023-03-16T07:13:58;100755.47;;;19.93;64.40
14882;BME280;7533;51.278;12.588;2023-03-16T07:19:02;100757.22;;;19.94;64.32
14882;BME280;7533;51.278;12.588;2023-03-16T07:24:08;100756.25;;;19.95;64.43
14882;BME280;7533;51.278;12.588;2023-03-16T07:29:12;100755.28;;;19.96;64.26
14882;BME280;7533;51.278;12.588;2023-03-16T07:34:16;100765.06;;;19.97;64.26
14882;BME280;7533;51.278;12.588;2023-03-16T07:39:26;100757.97;;;19.96;64.20
14882;BME280;7533;51.278;12.588;2023-03-16T07:44:36;100760.66;;;19.96;64.27
14882;BME280;7533;51.278;12.588;2023-03-16T07:49:39;100769.88;;;18.72;49.19
14882;BME280;7533;51.278;12.588;2023-03-16T07:54:44;100785.69;;;15.45;46.91
14882;BME280;7533;51.278;12.588;2023-03-16T07:59:47;100792.13;;;14.88;46.92
14882;BME280;7533;51.278;12.588;2023-03-16T08:04:51;100794.22;;;14.22;46.54
14882;BME280;7533;51.278;12.588;2023-03-16T08:09:55;100789.28;;;17.03;46.97
14882;BME280;7533;51.278;12.588;2023-03-16T08:15:07;100780.63;;;18.16;47.58
14882;BME280;7533;51.278;12.588;2023-03-16T08:20:11;100783.72;;;18.63;48.36
14882;BME280;7533;51.278;12.588;2023-03-16T08:25:18;100780.16;;;18.99;48.94
14882;BME280;7533;51.278;12.588;2023-03-16T08:30:30;100788.66;;;19.24;50.03
14882;BME280;7533;51.278;12.588;2023-03-16T08:35:53;100785.09;;;19.41;50.73
14882;BME280;7533;51.278;12.588;2023-03-16T08:40:58;100787.63;;;19.62;52.27
14882;BME280;7533;51.278;12.588;2023-03-16T08:46:01;100786.91;;;19.75;53.56
14882;BME280;7533;51.278;12.588;2023-03-16T08:51:15;100790.97;;;19.83;54.98
14882;BME280;7533;51.278;12.588;2023-03-16T08:56:20;100788.72;;;19.91;56.49
14882;BME280;7533;51.278;12.588;2023-03-16T09:01:23;100792.13;;;19.94;57.63
14882;BME280;7533;51.278;12.588;2023-03-16T09:06:27;100796.41;;;19.98;58.43
14882;BME280;7533;51.278;12.588;2023-03-16T09:11:32;100797.94;;;20.02;59.25
14882;BME280;7533;51.278;12.588;2023-03-16T09:16:35;100798.03;;;20.01;59.29
14882;BME280;7533;51.278;12.588;2023-03-16T09:21:38;100797.88;;;20.04;59.92
14882;BME280;7533;51.278;12.588;2023-03-16T09:26:43;100796.06;;;20.04;60.44
14882;BME280;7533;51.278;12.588;2023-03-16T09:31:46;100791.34;;;20.08;60.69
14882;BME280;7533;51.278;12.588;2023-03-16T09:36:49;100790.44;;;20.09;60.80
14882;BME280;7533;51.278;12.588;2023-03-16T09:42:01;100790.34;;;20.11;60.94
14882;BME280;7533;51.278;12.588;2023-03-16T09:47:08;100783.13;;;20.11;61.14
14882;BME280;7533;51.278;12.588;2023-03-16T09:52:22;100789.28;;;20.13;61.20
14882;BME280;7533;51.278;12.588;2023-03-16T09:57:31;100782.94;;;20.14;61.24
14882;BME280;7533;51.278;12.588;2023-03-16T10:03:31;100793.53;;;20.17;61.33
14882;BME280;7533;51.278;12.588;2023-03-16T10:09:02;100777.31;;;20.19;61.50
14882;BME280;7533;51.278;12.588;2023-03-16T10:14:12;100786.97;;;20.23;61.59
14882;BME280;7533;51.278;12.588;2023-03-16T10:19:27;100777.94;;;20.24;61.77
14882;BME280;7533;51.278;12.588;2023-03-16T10:24:41;100779.59;;;20.26;61.44
14882;BME280;7533;51.278;12.588;2023-03-16T10:29:48;100777.78;;;20.27;61.27
14882;BME280;7533;51.278;12.588;2023-03-16T10:34:56;100765.69;;;19.87;55.30
14882;BME280;7533;51.278;12.588;2023-03-16T10:40:00;100767.00;;;20.11;56.40
14882;BME280;7533;51.278;12.588;2023-03-16T10:45:23;100768.03;;;20.24;56.77
14882;BME280;7533;51.278;12.588;2023-03-16T10:50:31;100766.78;;;20.31;56.94
14882;BME280;7533;51.278;12.588;2023-03-16T10:55:40;100751.81;;;20.42;57.56
14882;BME280;7533;51.278;12.588;2023-03-16T11:00:45;100754.19;;;20.48;58.16
14882;BME280;7533;51.278;12.588;2023-03-16T11:05:56;100749.34;;;20.54;58.33
14882;BME280;7533;51.278;12.588;2023-03-16T11:11:07;100745.50;;;20.58;58.48
14882;BME280;7533;51.278;12.588;2023-03-16T11:16:24;100740.72;;;20.64;58.58
14882;BME280;7533;51.278;12.588;2023-03-16T11:21:37;100728.84;;;20.68;58.46
14882;BME280;7533;51.278;12.588;2023-03-16T11:26:43;100730.41;;;20.72;58.46
14882;BME280;7533;51.278;12.588;2023-03-16T11:31:53;100723.97;;;20.74;58.34
14882;BME280;7533;51.278;12.588;2023-03-16T11:37:04;100713.88;;;20.78;58.26
14882;BME280;7533;51.278;12.588;2023-03-16T11:42:22;100713.03;;;20.77;58.44
14882;BME280;7533;51.278;12.588;2023-03-16T11:47:48;100712.06;;;20.78;58.42
14882;BME280;7533;51.278;12.588;2023-03-16T11:53:02;100701.19;;;20.80;58.39
14882;BME280;7533;51.278;12.588;2023-03-16T11:58:23;100690.66;;;20.91;58.42
14882;BME280;7533;51.278;12.588;2023-03-16T12:03:43;100692.88;;;20.99;58.22
14882;BME280;7533;51.278;12.588;2023-03-16T12:09:17;100693.19;;;21.08;58.05
14882;BME280;7533;51.278;12.588;2023-03-16T12:14:28;100677.44;;;21.17;57.89
14882;BME280;7533;51.278;12.588;2023-03-16T12:19:40;100659.19;;;21.22;57.90
14882;BME280;7533;51.278;12.588;2023-03-16T12:24:45;100650.66;;;21.29;57.53
14882;BME280;7533;51.278;12.588;2023-03-16T12:29:57;100645.75;;;21.36;57.32
14882;BME280;7533;51.278;12.588;2023-03-16T12:35:16;100647.06;;;21.43;56.79
14882;BME280;7533;51.278;12.588;2023-03-16T12:40:30;100633.53;;;21.45;56.80
14882;BME280;7533;51.278;12.588;2023-03-16T12:45:38;100626.09;;;21.48;56.70
14882;BME280;7533;51.278;12.588;2023-03-16T12:50:50;100617.63;;;21.54;56.60
14882;BME280;7533;51.278;12.588;2023-03-16T12:55:53;100607.66;;;21.56;56.42
14882;BME280;7533;51.278;12.588;2023-03-16T13:00:58;100601.56;;;21.67;56.21
14882;BME280;7533;51.278;12.588;2023-03-16T13:06:03;100594.91;;;21.73;55.91
14882;BME280;7533;51.278;12.588;2023-03-16T13:11:08;100592.50;;;21.68;55.98
14882;BME280;7533;51.278;12.588;2023-03-16T13:16:22;100582.72;;;21.67;55.91
14882;BME280;7533;51.278;12.588;2023-03-16T13:21:38;100589.72;;;21.70;56.16
14882;BME280;7533;51.278;12.588;2023-03-16T13:26:44;100575.09;;;21.74;55.88
14882;BME280;7533;51.278;12.588;2023-03-16T13:31:48;100575.28;;;21.71;56.04
14882;BME280;7533;51.278;12.588;2023-03-16T13:36:55;100564.19;;;21.75;56.04
14882;BME280;7533;51.278;12.588;2023-03-16T13:42:01;100573.28;;;21.87;55.78
14882;BME280;7533;51.278;12.588;2023-03-16T13:47:05;100580.94;;;21.80;55.97
14882;BME280;7533;51.278;12.588;2023-03-16T13:52:14;100569.84;;;21.85;56.41
14882;BME280;7533;51.278;12.588;2023-03-16T13:57:23;100579.47;;;21.89;56.63
14882;BME280;7533;51.278;12.588;2023-03-16T14:02:27;100571.53;;;22.00;56.53
14882;BME280;7533;51.278;12.588;2023-03-16T14:07:36;100574.47;;;22.10;56.54
14882;BME280;7533;51.278;12.588;2023-03-16T14:12:49;100569.34;;;22.20;56.90
14882;BME280;7533;51.278;12.588;2023-03-16T14:17:52;100559.13;;;22.50;56.66
14882;BME280;7533;51.278;12.588;2023-03-16T14:22:56;100565.84;;;22.57;56.98
14882;BME280;7533;51.278;12.588;2023-03-16T14:28:05;100537.69;;;22.74;57.06
14882;BME280;7533;51.278;12.588;2023-03-16T14:33:25;100523.13;;;23.02;56.90
14882;BME280;7533;51.278;12.588;2023-03-16T14:38:32;100522.97;;;23.16;56.81
14882;BME280;7533;51.278;12.588;2023-03-16T14:43:43;100521.16;;;23.04;57.08
14882;BME280;7533;51.278;12.588;2023-03-16T14:48:46;100508.38;;;23.19;57.02
14882;BME280;7533;51.278;12.588;2023-03-16T14:53:52;100498.22;;;23.22;56.96
14882;BME280;7533;51.278;12.588;2023-03-16T14:58:55;100506.63;;;23.31;57.02
14882;BME280;7533;51.278;12.588;2023-03-16T15:03:59;100474.81;;;23.34;57.00
14882;BME280;7533;51.278;12.588;2023-03-16T15:09:04;100469.56;;;23.33;57.19
14882;BME280;7533;51.278;12.588;2023-03-16T15:14:10;100458.94;;;23.42;57.03
14882;BME280;7533;51.278;12.588;2023-03-16T15:19:38;100458.66;;;23.58;57.03
14882;BME280;7533;51.278;12.588;2023-03-16T15:24:43;100446.41;;;23.65;56.82
14882;BME280;7533;51.278;12.588;2023-03-16T15:29:47;100454.91;;;23.72;56.94
14882;BME280;7533;51.278;12.588;2023-03-16T15:34:51;100455.25;;;23.67;56.95
14882;BME280;7533;51.278;12.588;2023-03-16T15:39:55;100453.41;;;23.68;57.06
14882;BME280;7533;51.278;12.588;2023-03-16T15:44:58;100460.06;;;23.51;57.34
14882;BME280;7533;51.278;12.588;2023-03-16T15:50:01;100460.00;;;23.40;57.89
14882;BME280;7533;51.278;12.588;2023-03-16T15:55:08;100465.59;;;23.26;58.02
14882;BME280;7533;51.278;12.588;2023-03-16T16:00:25;100462.25;;;23.22;58.12
14882;BME280;7533;51.278;12.588;2023-03-16T16:05:30;100447.81;;;23.10;58.32
14882;BME280;7533;51.278;12.588;2023-03-16T16:10:35;100440.09;;;22.93;58.75
14882;BME280;7533;51.278;12.588;2023-03-16T16:15:38;100446.31;;;23.06;58.55
14882;BME280;7533;51.278;12.588;2023-03-16T16:20:41;100443.28;;;23.11;51.35
14882;BME280;7533;51.278;12.588;2023-03-16T16:25:46;100438.72;;;23.11;56.31
14882;BME280;7533;51.278;12.588;2023-03-16T16:30:50;100439.84;;;23.09;56.99
14882;BME280;7533;51.278;12.588;2023-03-16T16:35:54;100435.34;;;23.20;57.11
14882;BME280;7533;51.278;12.588;2023-03-16T16:41:01;100438.06;;;23.20;57.39
14882;BME280;7533;51.278;12.588;2023-03-16T16:46:12;100428.25;;;23.19;57.82
14882;BME280;7533;51.278;12.588;2023-03-16T16:51:18;100425.75;;;23.16;58.28
14882;BME280;7533;51.278;12.588;2023-03-16T16:56:26;100428.06;;;23.10;58.54
14882;BME280;7533;51.278;12.588;2023-03-16T17:01:31;100437.06;;;22.98;59.16
14882;BME280;7533;51.278;12.588;2023-03-16T17:06:35;100432.72;;;22.95;59.33
14882;BME280;7533;51.278;12.588;2023-03-16T17:11:40;100414.94;;;22.92;59.58
14882;BME280;7533;51.278;12.588;2023-03-16T17:16:44;100421.19;;;22.93;59.69
14882;BME280;7533;51.278;12.588;2023-03-16T17:21:49;100411.72;;;22.87;60.18
14882;BME280;7533;51.278;12.588;2023-03-16T17:26:55;100417.66;;;22.80;61.29
14882;BME280;7533;51.278;12.588;2023-03-16T17:32:00;100412.47;;;22.77;62.73
14882;BME280;7533;51.278;12.588;2023-03-16T17:37:06;100424.56;;;22.71;63.48
14882;BME280;7533;51.278;12.588;2023-03-16T17:42:12;100420.59;;;22.64;63.79
14882;BME280;7533;51.278;12.588;2023-03-16T17:47:20;100413.47;;;22.50;64.22
14882;BME280;7533;51.278;12.588;2023-03-16T17:52:25;100414.16;;;22.41;63.87
14882;BME280;7533;51.278;12.588;2023-03-16T17:57:31;100406.38;;;22.36;63.83
14882;BME280;7533;51.278;12.588;2023-03-16T18:02:38;100388.69;;;22.32;63.35
14882;BME280;7533;51.278;12.588;2023-03-16T18:07:42;100408.84;;;22.27;62.77
14882;BME280;7533;51.278;12.588;2023-03-16T18:12:51;100407.47;;;22.21;62.58
14882;BME280;7533;51.278;12.588;2023-03-16T18:17:56;100409.72;;;22.14;62.55
14882;BME280;7533;51.278;12.588;2023-03-16T18:23:00;100408.28;;;22.09;62.35
14882;BME280;7533;51.278;12.588;2023-03-16T18:28:06;100397.94;;;22.03;62.13
14882;BME280;7533;51.278;12.588;2023-03-16T18:33:21;100401.81;;;21.99;62.10
14882;BME280;7533;51.278;12.588;2023-03-16T18:38:28;100394.94;;;21.95;62.03
14882;BME280;7533;51.278;12.588;2023-03-16T18:43:33;100388.13;;;21.89;61.89
14882;BME280;7533;51.278;12.588;2023-03-16T18:48:36;100379.41;;;21.85;61.75
14882;BME280;7533;51.278;12.588;2023-03-16T18:53:39;100374.44;;;21.79;61.62
14882;BME280;7533;51.278;12.588;2023-03-16T18:58:44;100382.81;;;21.75;61.70
14882;BME280;7533;51.278;12.588;2023-03-16T19:03:47;100388.41;;;21.72;61.46
14882;BME280;7533;51.278;12.588;2023-03-16T19:08:50;100379.81;;;21.67;61.46
14882;BME280;7533;51.278;12.588;2023-03-16T19:13:55;100381.84;;;21.63;61.46
14882;BME280;7533;51.278;12.588;2023-03-16T19:18:58;100400.03;;;21.59;61.50
14882;BME280;7533;51.278;12.588;2023-03-16T19:24:01;100410.25;;;21.54;61.63
14882;BME280;7533;51.278;12.588;2023-03-16T19:29:11;100407.47;;;21.56;61.37
14882;BME280;7533;51.278;12.588;2023-03-16T19:34:16;100377.63;;;21.59;61.07
14882;BME280;7533;51.278;12.588;2023-03-16T19:39:19;100378.06;;;21.65;60.54
14882;BME280;7533;51.278;12.588;2023-03-16T19:44:25;100394.88;;;21.69;60.28
14882;BME280;7533;51.278;12.588;2023-03-16T19:49:29;100387.25;;;21.76;59.97
14882;BME280;7533;51.278;12.588;2023-03-16T19:54:32;100379.81;;;21.79;59.80
14882;BME280;7533;51.278;12.588;2023-03-16T19:59:37;100385.94;;;21.81;59.31
14882;BME280;7533;51.278;12.588;2023-03-16T20:04:39;100393.59;;;21.87;59.10
14882;BME280;7533;51.278;12.588;2023-03-16T20:09:43;100386.31;;;21.89;58.89
14882;BME280;7533;51.278;12.588;2023-03-16T20:14:48;100377.00;;;21.93;58.73
14882;BME280;7533;51.278;12.588;2023-03-16T20:19:51;100378.53;;;21.98;58.58
14882;BME280;7533;51.278;12.588;2023-03-16T20:24:54;100376.94;;;21.95;58.48
14882;BME280;7533;51.278;12.588;2023-03-16T20:29:59;100368.41;;;22.01;58.23
14882;BME280;7533;51.278;12.588;2023-03-16T20:35:05;100367.13;;;22.07;57.97
14882;BME280;7533;51.278;12.588;2023-03-16T20:40:15;100359.69;;;22.10;57.57
14882;BME280;7533;51.278;12.588;2023-03-16T20:45:22;100350.53;;;22.13;57.50
14882;BME280;7533;51.278;12.588;2023-03-16T20:50:27;100351.16;;;22.16;57.40
14882;BME280;7533;51.278;12.588;2023-03-16T20:55:31;100347.41;;;22.19;57.05
14882;BME280;7533;51.278;12.588;2023-03-16T21:00:37;100340.06;;;22.21;57.05
14882;BME280;7533;51.278;12.588;2023-03-16T21:05:40;100330.13;;;22.22;56.91
14882;BME280;7533;51.278;12.588;2023-03-16T21:10:45;100337.16;;;22.24;56.83
14882;BME280;7533;51.278;12.588;2023-03-16T21:15:51;100336.91;;;22.27;56.85
14882;BME280;7533;51.278;12.588;2023-03-16T21:20:56;100341.25;;;22.30;56.69
14882;BME280;7533;51.278;12.588;2023-03-16T21:26:00;100339.41;;;22.30;56.42
14882;BME280;7533;51.278;12.588;2023-03-16T21:31:05;100326.66;;;22.32;56.60
14882;BME280;7533;51.278;12.588;2023-03-16T21:36:13;100324.09;;;22.31;56.33
14882;BME280;7533;51.278;12.588;2023-03-16T21:41:16;100317.72;;;22.32;56.22
14882;BME280;7533;51.278;12.588;2023-03-16T21:46:22;100318.50;;;22.34;56.23
14882;BME280;7533;51.278;12.588;2023-03-16T21:51:27;100306.59;;;22.36;56.25
14882;BME280;7533;51.278;12.588;2023-03-16T21:56:31;100305.22;;;22.31;56.81
14882;BME280;7533;51.278;12.588;2023-03-16T22:01:37;100288.28;;;22.29;57.28
14882;BME280;7533;51.278;12.588;2023-03-16T22:06:59;100280.09;;;22.30;57.35
14882;BME280;7533;51.278;12.588;2023-03-16T22:12:02;100283.22;;;22.24;57.65
14882;BME280;7533;51.278;12.588;2023-03-16T22:17:13;100275.16;;;22.24;57.61
14882;BME280;7533;51.278;12.588;2023-03-16T22:22:17;100278.81;;;22.23;57.83
14882;BME280;7533;51.278;12.588;2023-03-16T22:27:21;100268.97;;;22.22;57.90
14882;BME280;7533;51.278;12.588;2023-03-16T22:32:27;100270.09;;;22.20;58.07
14882;BME280;7533;51.278;12.588;2023-03-16T22:37:30;100266.00;;;22.14;58.16
14882;BME280;7533;51.278;12.588;2023-03-16T22:42:35;100267.78;;;22.26;58.09
14882;BME280;7533;51.278;12.588;2023-03-16T22:47:40;100262.97;;;22.18;58.11
14882;BME280;7533;51.278;12.588;2023-03-16T22:52:45;100255.75;;;22.19;58.42
14882;BME280;7533;51.278;12.588;2023-03-16T22:57:59;100255.00;;;22.17;58.44
14882;BME280;7533;51.278;12.588;2023-03-16T23:03:04;100247.19;;;22.25;58.47
14882;BME280;7533;51.278;12.588;2023-03-16T23:08:17;100243.84;;;22.22;58.48
14882;BME280;7533;51.278;12.588;2023-03-16T23:13:23;100233.31;;;22.18;58.58
14882;BME280;7533;51.278;12.588;2023-03-16T23:18:28;100233.84;;;22.24;58.47
14882;BME280;7533;51.278;12.588;2023-03-16T23:23:31;100220.69;;;22.19;58.71
14882;BME280;7533;51.278;12.588;2023-03-16T23:28:34;100213.88;;;22.26;58.75
14882;BME280;7533;51.278;12.588;2023-03-16T23:33:39;100204.94;;;22.26;58.50
14882;BME280;7533;51.278;12.588;2023-03-16T23:38:43;100207.63;;;22.26;58.62
14882;BME280;7533;51.278;12.588;2023-03-16T23:43:46;100192.63;;;22.22;58.84
14882;BME280;7533;51.278;12.588;2023-03-16T23:48:53;100181.97;;;22.20;58.81
14882;BME280;7533;51.278;12.588;2023-03-16T23:53:57;100176.06;;;22.15;59.11
14882;BME280;7533;51.278;12.588;2023-03-16T23:59:00;100174.56;;;22.11;59.26
